createdAt,value
2023-01-08T00:01:40.585Z,-9.17
2023-01-08T00:04:09.240Z,-9.10
2023-01-08T00:06:39.672Z,-9.08
2023-01-08T00:09:08.066Z,-9.18
2023-01-08T00:11:37.437Z,-9.40
2023-01-08T00:14:06.186Z,-9.39
2023-01-08T00:16:36.084Z,-9.29
2023-01-08T00:19:05.099Z,-9.49
2023-01-08T00:21:33.974Z,-9.48
2023-01-08T00:24:03.181Z,-9.39
2023-01-08T00:26:33.197Z,-9.43
2023-01-08T00:29:00.903Z,-9.46
2023-01-08T00:31:29.757Z,-9.63
2023-01-08T00:33:58.038Z,-9.63
2023-01-08T00:36:26.808Z,-9.64
2023-01-08T00:38:55.879Z,-9.62
2023-01-08T00:41:24.079Z,-9.49
2023-01-08T00:43:53.740Z,-9.59
2023-01-08T00:46:22.191Z,-9.32
2023-01-08T00:48:51.326Z,-9.36
2023-01-08T00:51:19.584Z,-9.34
2023-01-08T00:53:48.036Z,-9.29
2023-01-08T00:56:16.744Z,-9.37
2023-01-08T00:58:45.003Z,-9.48
2023-01-08T01:01:15.434Z,-9.37
2023-01-08T01:03:44.202Z,-9.29
2023-01-08T01:06:14.251Z,-9.42
2023-01-08T01:08:44.611Z,-9.35
2023-01-08T01:11:24.371Z,-9.10
2023-01-08T01:13:56.961Z,-9.11
2023-01-08T01:16:27.294Z,-9.23
2023-01-08T01:18:58.459Z,-9.31
2023-01-08T01:21:31.875Z,-9.25
2023-01-08T01:24:04.474Z,-9.35
2023-01-08T01:26:35.159Z,-9.39
2023-01-08T01:29:03.019Z,-9.42
2023-01-08T01:31:33.110Z,-9.36
2023-01-08T01:34:01.286Z,-9.37
2023-01-08T01:36:30.267Z,-9.23
2023-01-08T01:38:59.474Z,-9.23
2023-01-08T01:41:32.268Z,-9.41
2023-01-08T01:44:40.759Z,-9.20
2023-01-08T01:47:42.204Z,-9.51
2023-01-08T01:50:32.322Z,-9.41
2023-01-08T01:53:13.242Z,-9.26
2023-01-08T01:55:44.541Z,-9.05
2023-01-08T01:58:22.825Z,-8.90
2023-01-08T02:00:53.399Z,-9.16
2023-01-08T02:03:24.306Z,-9.18
2023-01-08T02:06:18.875Z,-9.01
2023-01-08T02:09:20.735Z,-8.97
2023-01-08T02:12:26.669Z,-9.17
2023-01-08T02:15:32.589Z,-9.28
2023-01-08T02:18:20.473Z,-9.32
2023-01-08T02:20:56.897Z,-9.49
2023-01-08T02:24:11.569Z,-9.45
2023-01-08T02:26:40.580Z,-9.07
2023-01-08T02:29:17.323Z,-9.26
2023-01-08T02:31:47.052Z,-9.21
2023-01-08T02:34:15.153Z,-9.31
2023-01-08T02:36:53.291Z,-9.33
2023-01-08T02:39:42.378Z,-9.47
2023-01-08T02:42:18.681Z,-9.40
2023-01-08T02:45:16.786Z,-9.40
2023-01-08T02:48:04.897Z,-9.36
2023-01-08T02:50:53.932Z,-9.31
2023-01-08T02:53:43.290Z,-9.43
2023-01-08T02:56:16.737Z,-9.66
2023-01-08T02:58:48.239Z,-9.64
2023-01-08T03:01:19.073Z,-9.62
2023-01-08T03:03:55.079Z,-9.44
2023-01-08T03:06:26.699Z,-9.59
2023-01-08T03:08:55.295Z,-9.38
2023-01-08T03:11:26.900Z,-9.60
2023-01-08T03:14:02.733Z,-9.56
2023-01-08T03:16:41.672Z,-9.71
2023-01-08T03:19:32.731Z,-9.61
2023-01-08T03:22:03.716Z,-9.77
2023-01-08T03:24:35.429Z,-9.78
2023-01-08T03:27:07.983Z,-9.72
2023-01-08T03:29:38.586Z,-9.50
2023-01-08T03:32:13.913Z,-9.60
2023-01-08T03:34:45.997Z,-9.61
2023-01-08T03:37:15.946Z,-9.64
2023-01-08T03:40:01.214Z,-9.87
2023-01-08T03:42:32.739Z,-9.76
2023-01-08T03:45:01.844Z,-9.87
2023-01-08T03:47:33.275Z,-9.95
2023-01-08T03:50:03.487Z,-9.94
2023-01-08T03:52:35.703Z,-9.83
2023-01-08T03:55:05.317Z,-9.87
2023-01-08T03:57:34.363Z,-9.86
2023-01-08T04:00:04.382Z,-9.80
2023-01-08T04:02:33.693Z,-9.63
2023-01-08T04:05:02.794Z,-9.72
2023-01-08T04:07:31.967Z,-9.51
2023-01-08T04:10:01.008Z,-9.64
2023-01-08T04:12:29.108Z,-9.68
2023-01-08T04:14:58.213Z,-9.95
2023-01-08T04:17:28.577Z,-9.71
2023-01-08T04:19:57.332Z,-9.53
2023-01-08T04:22:25.132Z,-9.63
2023-01-08T04:24:54.542Z,-9.61
2023-01-08T04:27:22.098Z,-9.63
2023-01-08T04:29:50.832Z,-9.37
2023-01-08T04:32:19.780Z,-9.62
2023-01-08T04:34:49.080Z,-9.51
2023-01-08T04:37:17.086Z,-9.60
2023-01-08T04:39:45.929Z,-9.87
2023-01-08T04:42:14.954Z,-9.82
2023-01-08T04:44:44.358Z,-9.70
2023-01-08T04:47:13.142Z,-9.69
2023-01-08T04:49:41.071Z,-9.51
2023-01-08T04:52:10.164Z,-9.88
2023-01-08T04:54:38.971Z,-9.93
2023-01-08T04:57:08.324Z,-9.85
2023-01-08T04:59:37.013Z,-9.78
2023-01-08T05:02:06.233Z,-9.97
2023-01-08T05:04:36.162Z,-9.86
2023-01-08T05:07:07.182Z,-9.83
2023-01-08T05:09:36.276Z,-9.82
2023-01-08T05:12:05.218Z,-9.75
2023-01-08T05:14:39.084Z,-9.81
2023-01-08T05:17:08.034Z,-9.97
2023-01-08T05:19:38.409Z,-9.89
2023-01-08T05:22:07.138Z,-9.99
2023-01-08T05:24:37.954Z,-9.91
2023-01-08T05:27:06.055Z,-9.96
2023-01-08T05:29:34.942Z,-9.78
2023-01-08T05:32:03.748Z,-9.81
2023-01-08T05:34:31.970Z,-9.99
2023-01-08T05:36:59.960Z,-9.85
2023-01-08T05:39:28.603Z,-9.93
2023-01-08T05:41:56.969Z,-9.86
2023-01-08T05:44:24.964Z,-9.91
2023-01-08T05:46:58.651Z,-10.01
2023-01-08T05:49:28.439Z,-9.98
2023-01-08T05:51:57.541Z,-9.82
2023-01-08T05:54:28.159Z,-10.01
2023-01-08T05:56:57.778Z,-10.03
2023-01-08T05:59:26.966Z,-9.95
2023-01-08T06:01:55.097Z,-10.12
2023-01-08T06:04:24.148Z,-9.93
2023-01-08T06:06:51.982Z,-10.07
2023-01-08T06:09:21.044Z,-9.96
2023-01-08T06:11:49.972Z,-10.02
2023-01-08T06:14:18.058Z,-9.75
2023-01-08T06:16:47.101Z,-9.98
2023-01-08T06:19:16.231Z,-9.75
2023-01-08T06:21:45.291Z,-9.84
2023-01-08T06:24:14.265Z,-9.85
2023-01-08T06:26:42.006Z,-9.72
2023-01-08T06:29:10.943Z,-9.69
2023-01-08T06:31:39.054Z,-9.68
2023-01-08T06:34:08.141Z,-9.33
2023-01-08T06:36:36.981Z,-9.49
2023-01-08T06:39:07.305Z,-9.41
2023-01-08T06:41:35.455Z,-9.28
2023-01-08T06:44:07.613Z,-9.51
2023-01-08T06:46:40.976Z,-9.26
2023-01-08T06:49:09.843Z,-9.32
2023-01-08T06:51:41.317Z,-9.35
2023-01-08T06:54:09.159Z,-9.26
2023-01-08T06:56:52.541Z,-9.32
2023-01-08T06:59:23.045Z,-9.10
2023-01-08T07:01:52.106Z,-9.11
2023-01-08T07:04:20.580Z,-8.91
2023-01-08T07:06:49.525Z,-9.06
2023-01-08T07:09:18.648Z,-8.99
2023-01-08T07:11:46.955Z,-8.96
2023-01-08T07:14:16.236Z,-8.89
2023-01-08T07:16:45.159Z,-8.74
2023-01-08T07:19:13.982Z,-9.02
2023-01-08T07:21:43.103Z,-8.82
2023-01-08T07:24:11.215Z,-8.96
2023-01-08T07:26:40.633Z,-8.97
2023-01-08T07:29:09.278Z,-8.84
2023-01-08T07:31:38.909Z,-8.89
2023-01-08T07:34:07.059Z,-8.88
2023-01-08T07:36:35.021Z,-8.83
2023-01-08T07:39:04.041Z,-8.88
2023-01-08T07:41:34.033Z,-8.83
2023-01-08T07:44:03.345Z,-8.58
2023-01-08T07:46:32.718Z,-8.32
2023-01-08T07:49:01.030Z,-8.35
2023-01-08T07:51:30.138Z,-8.41
2023-01-08T07:53:58.035Z,-8.14
2023-01-08T07:56:26.993Z,-7.82
2023-01-08T07:58:55.126Z,-7.92
2023-01-08T08:01:26.756Z,-7.79
2023-01-08T08:03:54.995Z,-7.88
2023-01-08T08:06:24.178Z,-7.82
2023-01-08T08:08:53.595Z,-7.46
2023-01-08T08:11:21.956Z,-7.55
2023-01-08T08:13:53.001Z,-7.40
2023-01-08T08:16:22.069Z,-7.20
2023-01-08T08:18:50.779Z,-7.19
2023-01-08T08:21:18.943Z,-7.19
2023-01-08T08:23:50.075Z,-7.05
2023-01-08T08:26:19.913Z,-6.94
2023-01-08T08:28:48.013Z,-6.60
2023-01-08T08:31:17.159Z,-6.52
2023-01-08T08:33:46.590Z,-6.29
2023-01-08T08:36:15.022Z,-6.18
2023-01-08T08:38:44.676Z,-6.21
2023-01-08T08:41:12.997Z,-6.63
2023-01-08T08:43:42.365Z,-6.41
2023-01-08T08:46:09.934Z,-6.36
2023-01-08T08:48:41.184Z,-6.18
2023-01-08T08:51:09.089Z,-6.05
2023-01-08T08:53:42.628Z,-6.10
2023-01-08T08:56:10.893Z,-5.63
2023-01-08T10:41:44.136Z,-3.30
2023-01-08T10:44:19.390Z,-3.14
2023-01-08T10:46:52.596Z,-3.49
2023-01-08T10:49:32.526Z,-3.51
2023-01-08T10:52:01.736Z,-3.42
2023-01-08T10:54:35.381Z,-3.23
2023-01-08T10:57:23.820Z,-2.93
2023-01-08T10:59:52.719Z,-3.04
2023-01-08T11:02:39.366Z,-2.71
2023-01-08T11:05:11.652Z,-2.43
2023-01-08T11:07:41.794Z,-2.67
2023-01-08T11:10:26.471Z,-3.16
2023-01-08T11:13:04.815Z,-3.16
2023-01-08T11:15:42.261Z,-2.81
2023-01-08T11:18:26.042Z,-2.53
2023-01-08T11:21:06.556Z,-2.94
2023-01-08T11:23:35.336Z,-2.32
2023-01-08T11:26:11.395Z,-2.71
2023-01-08T11:29:18.189Z,-2.32
2023-01-08T11:32:10.733Z,-2.60
2023-01-08T11:35:33.788Z,-2.37
2023-01-08T11:38:05.833Z,-3.01
2023-01-08T11:40:55.730Z,-2.96
2023-01-08T11:43:42.227Z,-2.42
2023-01-08T11:46:38.515Z,-2.91
2023-01-08T11:49:43.886Z,-3.07
2023-01-08T11:52:33.489Z,-2.71
2023-01-08T11:55:39.112Z,-3.07
2023-01-08T11:58:12.780Z,-3.11
2023-01-08T12:00:50.400Z,-3.21
2023-01-08T12:03:38.754Z,-2.61
2023-01-08T12:06:38.420Z,-2.90
2023-01-08T12:09:40.500Z,-2.98
2023-01-08T12:12:41.168Z,-3.20
2023-01-08T12:15:48.657Z,-3.28
2023-01-08T12:18:54.709Z,-3.45
2023-01-08T12:21:34.207Z,-3.40
2023-01-08T12:24:15.751Z,-3.67
2023-01-08T12:27:07.880Z,-3.80
2023-01-08T12:29:49.335Z,-3.81
2023-01-08T12:32:42.726Z,-3.51
2023-01-08T12:35:41.865Z,-3.89
2023-01-08T12:38:36.803Z,-4.00
2023-01-08T12:41:12.485Z,-3.92
2023-01-08T12:44:04.632Z,-3.90
2023-01-08T12:46:35.361Z,-4.23
2023-01-08T12:49:06.683Z,-4.03
2023-01-08T12:51:54.733Z,-3.81
2023-01-08T12:54:54.485Z,-4.30
2023-01-08T12:57:35.032Z,-4.28
2023-01-08T13:00:17.901Z,-4.23
2023-01-08T13:03:04.975Z,-4.07
2023-01-08T13:05:37.901Z,-4.48
2023-01-08T13:08:28.699Z,-4.38
2023-01-08T13:10:58.023Z,-4.14
2023-01-08T13:13:46.157Z,-4.41
2023-01-08T13:16:22.610Z,-4.54
2023-01-08T13:19:02.882Z,-4.69
2023-01-08T13:21:44.160Z,-4.50
2023-01-08T13:24:40.000Z,-4.45
2023-01-08T13:27:20.713Z,-4.73
2023-01-08T13:29:51.945Z,-4.69
2023-01-08T13:32:38.413Z,-4.68
2023-01-08T13:35:31.684Z,-4.71
2023-01-08T13:38:20.242Z,-4.70
2023-01-08T13:40:50.662Z,-4.71
2023-01-08T13:43:30.577Z,-4.89
2023-01-08T13:45:58.419Z,-5.01
2023-01-08T13:48:31.260Z,-4.94
2023-01-08T13:51:00.554Z,-5.10
2023-01-08T13:53:31.096Z,-5.12
2023-01-08T13:56:03.022Z,-5.27
2023-01-08T13:58:51.920Z,-5.22
2023-01-08T14:01:22.639Z,-5.32
2023-01-08T14:03:51.776Z,-5.40
2023-01-08T14:06:27.667Z,-5.34
2023-01-08T14:08:56.801Z,-5.54
2023-01-08T14:11:30.223Z,-5.54
2023-01-08T14:13:58.699Z,-5.59
2023-01-08T14:16:28.697Z,-5.47
2023-01-08T14:19:01.515Z,-5.61
2023-01-08T14:21:30.405Z,-5.68
2023-01-08T14:23:58.921Z,-5.80
2023-01-08T14:26:42.833Z,-5.87
2023-01-08T14:29:15.341Z,-5.73
2023-01-08T14:31:50.457Z,-5.83
2023-01-08T14:34:19.853Z,-5.92
2023-01-08T14:36:51.893Z,-5.87
2023-01-08T14:39:38.752Z,-5.91
2023-01-08T14:42:41.806Z,-6.04
2023-01-08T14:45:21.706Z,-6.00
2023-01-08T14:47:54.567Z,-6.19
2023-01-08T14:50:27.221Z,-6.17
2023-01-08T14:53:01.280Z,-6.30
2023-01-08T14:55:29.802Z,-6.27
2023-01-08T14:57:59.921Z,-6.29
2023-01-08T15:00:32.220Z,-6.27
2023-01-08T15:03:00.405Z,-6.29
2023-01-08T15:05:31.298Z,-6.08
2023-01-08T15:08:25.369Z,-6.24
2023-01-08T15:11:25.314Z,-6.28
2023-01-08T15:13:57.980Z,-6.21
2023-01-08T15:16:34.058Z,-6.28
2023-01-08T15:19:05.562Z,-6.45
2023-01-08T15:21:35.547Z,-6.59
2023-01-08T15:24:07.185Z,-6.49
2023-01-08T15:26:42.885Z,-6.41
2023-01-08T15:29:21.180Z,-6.30
2023-01-08T15:31:50.292Z,-6.53
2023-01-08T15:34:21.218Z,-6.44
2023-01-08T15:36:50.608Z,-6.56
2023-01-08T15:39:19.277Z,-6.82
2023-01-08T15:42:06.887Z,-6.67
2023-01-08T15:44:35.358Z,-6.70
2023-01-08T15:47:04.576Z,-6.92
2023-01-08T15:49:35.324Z,-7.07
2023-01-08T15:52:04.452Z,-6.90
2023-01-08T15:54:33.422Z,-7.19
2023-01-08T15:57:01.366Z,-7.08
2023-01-08T15:59:31.795Z,-7.23
2023-01-08T16:02:01.499Z,-7.24
2023-01-08T16:04:31.319Z,-7.37
2023-01-08T16:07:02.853Z,-7.25
2023-01-08T16:09:31.957Z,-7.32
2023-01-08T16:12:00.377Z,-7.29
2023-01-08T16:14:34.509Z,-7.32
2023-01-08T16:17:04.890Z,-7.41
2023-01-08T16:19:35.907Z,-7.52
2023-01-08T16:22:06.345Z,-7.39
2023-01-08T19:43:12.333Z,-9.16
2023-01-08T19:45:44.210Z,-9.08
2023-01-08T19:48:13.581Z,-9.09
2023-01-08T19:50:43.825Z,-9.20
2023-01-08T19:53:14.541Z,-9.18
2023-01-08T19:55:42.512Z,-9.36
2023-01-08T19:58:11.333Z,-9.42
2023-01-08T20:00:42.423Z,-9.43
2023-01-08T20:03:10.957Z,-9.53
2023-01-08T20:05:42.936Z,-9.34
2023-01-08T20:08:11.770Z,-9.39
2023-01-08T20:10:40.783Z,-9.32
2023-01-08T20:13:08.811Z,-9.33
2023-01-08T20:15:38.189Z,-9.42
2023-01-08T20:18:07.049Z,-9.54
2023-01-08T20:20:35.749Z,-9.55
2023-01-08T20:23:03.796Z,-9.52
2023-01-08T20:25:34.850Z,-9.57
2023-01-08T20:28:02.713Z,-9.39
2023-01-08T20:30:31.466Z,-9.45
2023-01-08T20:33:03.378Z,-9.45
2023-01-08T20:35:37.126Z,-9.45
2023-01-08T20:38:04.737Z,-9.42
2023-01-08T20:40:33.050Z,-9.29
2023-01-08T20:43:01.772Z,-9.40
2023-01-08T20:45:31.034Z,-9.21
2023-01-08T20:47:58.736Z,-9.40
2023-01-08T20:50:27.605Z,-9.50
2023-01-08T20:52:55.801Z,-9.17
2023-01-08T20:55:24.657Z,-9.41
2023-01-08T20:57:52.721Z,-9.49
2023-01-08T21:00:22.159Z,-9.42
2023-01-08T21:02:50.920Z,-9.44
2023-01-08T21:05:18.810Z,-9.40
2023-01-08T21:07:46.821Z,-9.56
2023-01-08T21:10:16.204Z,-9.36
2023-01-08T21:12:44.791Z,-9.44
2023-01-08T21:15:13.677Z,-9.26
2023-01-08T21:17:42.708Z,-9.19
2023-01-08T21:20:12.278Z,-9.34
2023-01-08T21:22:41.305Z,-9.37
2023-01-08T21:25:12.002Z,-9.57
2023-01-08T21:27:39.679Z,-9.62
2023-01-08T21:30:09.427Z,-9.63
2023-01-08T21:32:37.763Z,-9.76
2023-01-08T21:35:05.883Z,-9.72
2023-01-08T21:37:34.772Z,-9.80
2023-01-08T21:40:03.001Z,-9.82
2023-01-08T21:42:50.266Z,-9.83
2023-01-08T21:45:26.588Z,-9.86
2023-01-08T21:47:58.404Z,-9.82
2023-01-08T21:50:28.300Z,-9.94
2023-01-08T21:53:15.313Z,-9.91
2023-01-08T21:55:44.790Z,-9.77
2023-01-08T21:58:14.682Z,-9.84
2023-01-08T22:00:43.700Z,-9.88
2023-01-08T22:03:11.728Z,-9.83
2023-01-08T22:05:42.374Z,-9.77
2023-01-08T22:08:15.520Z,-9.58
2023-01-08T22:10:43.692Z,-9.82
2023-01-08T22:13:12.796Z,-9.81
2023-01-08T22:15:40.795Z,-9.72
2023-01-08T22:18:29.038Z,-9.82
2023-01-08T22:21:07.103Z,-9.76
2023-01-08T22:23:35.459Z,-9.84
2023-01-08T22:26:10.562Z,-9.91
2023-01-08T22:28:39.949Z,-9.86
2023-01-08T22:31:11.621Z,-9.84
2023-01-08T22:33:40.576Z,-9.93
2023-01-08T22:36:12.997Z,-9.89
2023-01-08T22:38:41.858Z,-9.87
2023-01-08T22:41:21.426Z,-9.91
2023-01-08T22:43:56.877Z,-9.94
2023-01-08T22:46:26.181Z,-9.87
2023-01-08T22:48:55.078Z,-9.89
2023-01-08T22:51:27.380Z,-9.77
2023-01-08T22:54:02.440Z,-10.08
2023-01-08T22:56:30.710Z,-9.97
2023-01-08T22:58:59.658Z,-10.07
2023-01-08T23:01:27.897Z,-10.03
2023-01-08T23:03:59.665Z,-10.05
2023-01-08T23:06:30.288Z,-10.01
2023-01-08T23:08:59.462Z,-10.04
2023-01-08T23:11:30.705Z,-10.00
2023-01-08T23:14:00.778Z,-9.81
2023-01-08T23:16:32.822Z,-9.97
2023-01-08T23:19:00.919Z,-10.02
2023-01-08T23:21:30.172Z,-9.96
2023-01-08T23:23:58.676Z,-9.88
2023-01-08T23:26:29.728Z,-9.83
2023-01-08T23:29:01.329Z,-10.01
2023-01-08T23:31:31.563Z,-10.13
2023-01-08T23:34:01.608Z,-9.88
2023-01-08T23:36:29.679Z,-10.01
2023-01-08T23:38:59.433Z,-10.10
2023-01-08T23:41:34.840Z,-10.02
2023-01-08T23:44:11.159Z,-9.98
2023-01-08T23:46:41.279Z,-9.96
2023-01-08T23:49:10.469Z,-9.93
2023-01-08T23:51:42.420Z,-9.98
2023-01-08T23:54:12.155Z,-9.97
2023-01-08T23:56:41.273Z,-9.99
2023-01-08T23:59:10.920Z,-9.93
